sensor_id;sensor_type;location;lat;lon;timestamp;P1;durP1;ratioP1;P2;durP2;ratioP2
71572;SDS011;59408;51.032;9.410;2023-06-22T00:01:29;15.77;;;10.70;;
71572;SDS011;59408;51.032;9.410;2023-06-22T00:03:55;15.82;;;10.63;;
71572;SDS011;59408;51.032;9.410;2023-06-22T00:06:22;14.82;;;10.88;;
71572;SDS011;59408;51.032;9.410;2023-06-22T00:08:48;15.10;;;10.88;;
71572;SDS011;59408;51.032;9.410;2023-06-22T00:11:15;17.23;;;11.37;;
71572;SDS011;59408;51.032;9.410;2023-06-22T00:13:43;14.98;;;10.63;;
71572;SDS011;59408;51.032;9.410;2023-06-22T00:16:10;15.48;;;10.68;;
71572;SDS011;59408;51.032;9.410;2023-06-22T00:18:36;16.58;;;10.77;;
71572;SDS011;59408;51.032;9.410;2023-06-22T00:21:03;16.83;;;10.88;;
71572;SDS011;59408;51.032;9.410;2023-06-22T00:23:29;14.13;;;9.53;;
71572;SDS011;59408;51.032;9.410;2023-06-22T00:25:56;16.80;;;11.20;;
71572;SDS011;59408;51.032;9.410;2023-06-22T00:28:22;16.67;;;11.00;;
71572;SDS011;59408;51.032;9.410;2023-06-22T00:30:50;14.35;;;10.18;;
71572;SDS011;59408;51.032;9.410;2023-06-22T00:33:17;16.70;;;10.38;;
71572;SDS011;59408;51.032;9.410;2023-06-22T00:35:44;15.17;;;10.27;;
71572;SDS011;59408;51.032;9.410;2023-06-22T00:38:10;15.60;;;10.65;;
71572;SDS011;59408;51.032;9.410;2023-06-22T00:40:37;15.93;;;10.27;;
71572;SDS011;59408;51.032;9.410;2023-06-22T00:43:04;16.77;;;10.82;;
71572;SDS011;59408;51.032;9.410;2023-06-22T00:45:31;17.20;;;10.00;;
71572;SDS011;59408;51.032;9.410;2023-06-22T00:47:59;14.23;;;9.40;;
71572;SDS011;59408;51.032;9.410;2023-06-22T00:50:27;13.88;;;8.82;;
71572;SDS011;59408;51.032;9.410;2023-06-22T00:52:56;14.48;;;8.60;;
71572;SDS011;59408;51.032;9.410;2023-06-22T00:55:25;14.30;;;9.65;;
71572;SDS011;59408;51.032;9.410;2023-06-22T00:57:52;15.02;;;9.50;;
71572;SDS011;59408;51.032;9.410;2023-06-22T01:00:19;16.00;;;9.50;;
71572;SDS011;59408;51.032;9.410;2023-06-22T01:02:46;13.50;;;8.77;;
71572;SDS011;59408;51.032;9.410;2023-06-22T01:05:16;14.25;;;9.00;;
71572;SDS011;59408;51.032;9.410;2023-06-22T01:07:45;13.40;;;9.10;;
71572;SDS011;59408;51.032;9.410;2023-06-22T01:10:21;14.40;;;9.15;;
71572;SDS011;59408;51.032;9.410;2023-06-22T01:12:55;15.23;;;10.17;;
71572;SDS011;59408;51.032;9.410;2023-06-22T01:15:28;13.93;;;8.68;;
71572;SDS011;59408;51.032;9.410;2023-06-22T01:17:59;14.65;;;8.88;;
71572;SDS011;59408;51.032;9.410;2023-06-22T01:20:30;15.02;;;9.35;;
71572;SDS011;59408;51.032;9.410;2023-06-22T01:23:02;14.25;;;9.25;;
71572;SDS011;59408;51.032;9.410;2023-06-22T01:25:37;14.90;;;10.10;;
71572;SDS011;59408;51.032;9.410;2023-06-22T01:28:13;14.95;;;9.30;;
71572;SDS011;59408;51.032;9.410;2023-06-22T01:30:50;16.30;;;9.23;;
71572;SDS011;59408;51.032;9.410;2023-06-22T01:33:18;16.83;;;10.55;;
71572;SDS011;59408;51.032;9.410;2023-06-22T01:35:45;20.00;;;12.05;;
71572;SDS011;59408;51.032;9.410;2023-06-22T01:38:12;21.10;;;13.07;;
71572;SDS011;59408;51.032;9.410;2023-06-22T01:40:39;20.25;;;12.00;;
71572;SDS011;59408;51.032;9.410;2023-06-22T01:43:06;19.38;;;12.05;;
71572;SDS011;59408;51.032;9.410;2023-06-22T01:45:33;17.95;;;10.90;;
71572;SDS011;59408;51.032;9.410;2023-06-22T01:48:01;17.83;;;10.77;;
71572;SDS011;59408;51.032;9.410;2023-06-22T01:50:28;17.30;;;10.73;;
71572;SDS011;59408;51.032;9.410;2023-06-22T01:52:55;15.25;;;10.18;;
71572;SDS011;59408;51.032;9.410;2023-06-22T01:55:22;17.73;;;10.60;;
71572;SDS011;59408;51.032;9.410;2023-06-22T01:57:49;17.90;;;10.77;;
71572;SDS011;59408;51.032;9.410;2023-06-22T02:00:17;17.30;;;10.80;;
71572;SDS011;59408;51.032;9.410;2023-06-22T02:02:49;17.50;;;11.60;;
71572;SDS011;59408;51.032;9.410;2023-06-22T02:05:21;23.17;;;12.45;;
71572;SDS011;59408;51.032;9.410;2023-06-22T02:07:52;21.27;;;11.93;;
71572;SDS011;59408;51.032;9.410;2023-06-22T02:10:26;20.17;;;13.30;;
71572;SDS011;59408;51.032;9.410;2023-06-22T02:12:55;21.67;;;12.40;;
71572;SDS011;59408;51.032;9.410;2023-06-22T02:15:24;23.80;;;12.93;;
71572;SDS011;59408;51.032;9.410;2023-06-22T02:17:51;22.33;;;13.60;;
71572;SDS011;59408;51.032;9.410;2023-06-22T02:20:18;23.38;;;13.43;;
71572;SDS011;59408;51.032;9.410;2023-06-22T02:22:46;25.85;;;13.50;;
71572;SDS011;59408;51.032;9.410;2023-06-22T02:25:13;24.45;;;13.15;;
71572;SDS011;59408;51.032;9.410;2023-06-22T02:27:40;27.97;;;14.20;;
71572;SDS011;59408;51.032;9.410;2023-06-22T02:30:07;19.55;;;12.98;;
71572;SDS011;59408;51.032;9.410;2023-06-22T02:32:34;22.95;;;13.50;;
71572;SDS011;59408;51.032;9.410;2023-06-22T02:35:01;25.10;;;13.65;;
71572;SDS011;59408;51.032;9.410;2023-06-22T02:37:28;21.73;;;13.35;;
71572;SDS011;59408;51.032;9.410;2023-06-22T02:39:56;23.53;;;12.53;;
71572;SDS011;59408;51.032;9.410;2023-06-22T02:42:23;19.95;;;12.50;;
71572;SDS011;59408;51.032;9.410;2023-06-22T02:44:49;19.48;;;12.32;;
71572;SDS011;59408;51.032;9.410;2023-06-22T02:47:16;20.88;;;12.50;;
71572;SDS011;59408;51.032;9.410;2023-06-22T02:49:43;19.98;;;11.65;;
71572;SDS011;59408;51.032;9.410;2023-06-22T02:52:09;16.30;;;10.63;;
71572;SDS011;59408;51.032;9.410;2023-06-22T02:54:36;16.20;;;10.35;;
71572;SDS011;59408;51.032;9.410;2023-06-22T02:57:04;17.40;;;11.27;;
71572;SDS011;59408;51.032;9.410;2023-06-22T02:59:31;20.05;;;10.73;;
71572;SDS011;59408;51.032;9.410;2023-06-22T03:01:59;19.67;;;11.77;;
71572;SDS011;59408;51.032;9.410;2023-06-22T03:04:26;16.73;;;10.37;;
71572;SDS011;59408;51.032;9.410;2023-06-22T03:06:53;17.42;;;10.85;;
71572;SDS011;59408;51.032;9.410;2023-06-22T03:09:19;17.10;;;10.77;;
71572;SDS011;59408;51.032;9.410;2023-06-22T03:11:46;16.33;;;10.50;;
71572;SDS011;59408;51.032;9.410;2023-06-22T03:14:14;16.55;;;10.07;;
71572;SDS011;59408;51.032;9.410;2023-06-22T03:16:40;16.03;;;10.30;;
71572;SDS011;59408;51.032;9.410;2023-06-22T03:19:07;16.25;;;10.02;;
71572;SDS011;59408;51.032;9.410;2023-06-22T03:21:34;17.60;;;10.32;;
71572;SDS011;59408;51.032;9.410;2023-06-22T03:24:00;15.23;;;10.25;;
71572;SDS011;59408;51.032;9.410;2023-06-22T03:26:27;13.70;;;9.52;;
71572;SDS011;59408;51.032;9.410;2023-06-22T03:28:54;12.67;;;8.17;;
71572;SDS011;59408;51.032;9.410;2023-06-22T03:31:22;14.60;;;9.45;;
71572;SDS011;59408;51.032;9.410;2023-06-22T03:34:06;15.02;;;9.98;;
71572;SDS011;59408;51.032;9.410;2023-06-22T03:36:33;13.73;;;9.38;;
71572;SDS011;59408;51.032;9.410;2023-06-22T03:38:59;14.10;;;9.40;;
71572;SDS011;59408;51.032;9.410;2023-06-22T03:41:26;13.33;;;8.70;;
71572;SDS011;59408;51.032;9.410;2023-06-22T03:43:53;15.25;;;9.48;;
71572;SDS011;59408;51.032;9.410;2023-06-22T03:46:19;15.50;;;9.20;;
71572;SDS011;59408;51.032;9.410;2023-06-22T03:48:47;13.90;;;8.82;;
71572;SDS011;59408;51.032;9.410;2023-06-22T03:51:14;15.88;;;9.88;;
71572;SDS011;59408;51.032;9.410;2023-06-22T03:53:40;12.97;;;8.43;;
71572;SDS011;59408;51.032;9.410;2023-06-22T03:56:07;13.00;;;8.77;;
71572;SDS011;59408;51.032;9.410;2023-06-22T03:58:34;13.77;;;8.93;;
71572;SDS011;59408;51.032;9.410;2023-06-22T04:01:00;17.95;;;10.15;;
71572;SDS011;59408;51.032;9.410;2023-06-22T04:03:27;23.23;;;12.25;;
71572;SDS011;59408;51.032;9.410;2023-06-22T04:05:55;23.13;;;12.13;;
71572;SDS011;59408;51.032;9.410;2023-06-22T04:08:22;21.07;;;11.33;;
71572;SDS011;59408;51.032;9.410;2023-06-22T04:10:48;17.92;;;10.25;;
71572;SDS011;59408;51.032;9.410;2023-06-22T04:13:15;16.05;;;9.35;;
71572;SDS011;59408;51.032;9.410;2023-06-22T04:15:41;19.73;;;9.98;;
71572;SDS011;59408;51.032;9.410;2023-06-22T04:18:08;17.13;;;9.35;;
71572;SDS011;59408;51.032;9.410;2023-06-22T04:20:35;18.47;;;9.50;;
71572;SDS011;59408;51.032;9.410;2023-06-22T04:23:03;16.45;;;9.60;;
71572;SDS011;59408;51.032;9.410;2023-06-22T04:25:30;13.27;;;9.23;;
71572;SDS011;59408;51.032;9.410;2023-06-22T04:27:57;16.73;;;9.20;;
71572;SDS011;59408;51.032;9.410;2023-06-22T04:30:24;17.13;;;10.05;;
71572;SDS011;59408;51.032;9.410;2023-06-22T04:32:50;18.90;;;10.23;;
71572;SDS011;59408;51.032;9.410;2023-06-22T04:35:17;18.80;;;10.13;;
71572;SDS011;59408;51.032;9.410;2023-06-22T04:37:44;17.20;;;9.77;;
71572;SDS011;59408;51.032;9.410;2023-06-22T04:40:12;14.02;;;9.25;;
71572;SDS011;59408;51.032;9.410;2023-06-22T04:42:39;15.60;;;9.40;;
71572;SDS011;59408;51.032;9.410;2023-06-22T04:45:05;16.17;;;9.70;;
71572;SDS011;59408;51.032;9.410;2023-06-22T04:47:32;14.52;;;8.88;;
71572;SDS011;59408;51.032;9.410;2023-06-22T04:50:03;14.23;;;8.65;;
71572;SDS011;59408;51.032;9.410;2023-06-22T04:52:34;14.32;;;8.98;;
71572;SDS011;59408;51.032;9.410;2023-06-22T04:55:00;13.63;;;8.63;;
71572;SDS011;59408;51.032;9.410;2023-06-22T04:57:28;15.80;;;9.30;;
71572;SDS011;59408;51.032;9.410;2023-06-22T04:59:55;14.90;;;9.10;;
71572;SDS011;59408;51.032;9.410;2023-06-22T05:02:22;11.73;;;8.05;;
71572;SDS011;59408;51.032;9.410;2023-06-22T05:04:48;12.35;;;7.85;;
71572;SDS011;59408;51.032;9.410;2023-06-22T05:07:15;14.23;;;8.32;;
71572;SDS011;59408;51.032;9.410;2023-06-22T05:09:42;13.07;;;8.50;;
71572;SDS011;59408;51.032;9.410;2023-06-22T05:12:09;15.68;;;9.95;;
71572;SDS011;59408;51.032;9.410;2023-06-22T05:14:38;18.33;;;8.77;;
71572;SDS011;59408;51.032;9.410;2023-06-22T05:17:04;13.57;;;8.57;;
71572;SDS011;59408;51.032;9.410;2023-06-22T05:19:31;12.68;;;8.32;;
71572;SDS011;59408;51.032;9.410;2023-06-22T05:21:58;12.43;;;7.73;;
71572;SDS011;59408;51.032;9.410;2023-06-22T05:24:24;12.65;;;8.05;;
71572;SDS011;59408;51.032;9.410;2023-06-22T05:26:51;13.98;;;8.00;;
71572;SDS011;59408;51.032;9.410;2023-06-22T05:29:17;13.57;;;8.10;;
71572;SDS011;59408;51.032;9.410;2023-06-22T05:31:45;13.05;;;8.88;;
71572;SDS011;59408;51.032;9.410;2023-06-22T05:34:12;14.83;;;8.70;;
71572;SDS011;59408;51.032;9.410;2023-06-22T05:36:39;13.07;;;8.32;;
71572;SDS011;59408;51.032;9.410;2023-06-22T05:39:10;11.27;;;7.57;;
71572;SDS011;59408;51.032;9.410;2023-06-22T05:41:37;13.70;;;7.90;;
71572;SDS011;59408;51.032;9.410;2023-06-22T05:44:04;12.73;;;8.48;;
71572;SDS011;59408;51.032;9.410;2023-06-22T05:46:30;15.20;;;7.70;;
71572;SDS011;59408;51.032;9.410;2023-06-22T05:48:58;14.77;;;8.07;;
71572;SDS011;59408;51.032;9.410;2023-06-22T05:51:25;13.45;;;8.50;;
71572;SDS011;59408;51.032;9.410;2023-06-22T05:53:52;14.82;;;7.53;;
71572;SDS011;59408;51.032;9.410;2023-06-22T05:56:18;15.68;;;7.30;;
71572;SDS011;59408;51.032;9.410;2023-06-22T05:58:45;14.60;;;7.83;;
71572;SDS011;59408;51.032;9.410;2023-06-22T06:01:13;11.88;;;7.68;;
71572;SDS011;59408;51.032;9.410;2023-06-22T06:03:40;13.55;;;7.75;;
71572;SDS011;59408;51.032;9.410;2023-06-22T06:06:08;11.32;;;7.68;;
71572;SDS011;59408;51.032;9.410;2023-06-22T06:08:34;13.02;;;7.97;;
71572;SDS011;59408;51.032;9.410;2023-06-22T06:11:01;13.63;;;7.57;;
71572;SDS011;59408;51.032;9.410;2023-06-22T06:13:28;13.13;;;8.18;;
71572;SDS011;59408;51.032;9.410;2023-06-22T06:15:57;12.52;;;8.18;;
71572;SDS011;59408;51.032;9.410;2023-06-22T06:18:24;12.93;;;8.00;;
71572;SDS011;59408;51.032;9.410;2023-06-22T06:20:51;12.02;;;8.02;;
71572;SDS011;59408;51.032;9.410;2023-06-22T06:23:18;13.17;;;7.40;;
71572;SDS011;59408;51.032;9.410;2023-06-22T06:25:45;13.60;;;7.90;;
71572;SDS011;59408;51.032;9.410;2023-06-22T06:28:12;13.38;;;7.57;;
71572;SDS011;59408;51.032;9.410;2023-06-22T06:30:38;11.88;;;7.82;;
71572;SDS011;59408;51.032;9.410;2023-06-22T06:33:05;14.18;;;8.38;;
71572;SDS011;59408;51.032;9.410;2023-06-22T06:35:32;11.23;;;7.10;;
71572;SDS011;59408;51.032;9.410;2023-06-22T06:37:58;11.40;;;7.70;;
71572;SDS011;59408;51.032;9.410;2023-06-22T06:40:26;11.00;;;7.07;;
71572;SDS011;59408;51.032;9.410;2023-06-22T06:42:54;10.50;;;6.32;;
71572;SDS011;59408;51.032;9.410;2023-06-22T06:45:21;10.15;;;6.72;;
71572;SDS011;59408;51.032;9.410;2023-06-22T06:47:49;9.27;;;5.80;;
71572;SDS011;59408;51.032;9.410;2023-06-22T06:50:16;10.73;;;6.00;;
71572;SDS011;59408;51.032;9.410;2023-06-22T06:52:43;9.48;;;6.53;;
71572;SDS011;59408;51.032;9.410;2023-06-22T06:55:12;8.80;;;6.00;;
71572;SDS011;59408;51.032;9.410;2023-06-22T06:57:41;10.18;;;6.53;;
71572;SDS011;59408;51.032;9.410;2023-06-22T07:00:09;9.93;;;6.27;;
71572;SDS011;59408;51.032;9.410;2023-06-22T07:02:40;9.50;;;6.10;;
71572;SDS011;59408;51.032;9.410;2023-06-22T07:05:08;9.18;;;6.30;;
71572;SDS011;59408;51.032;9.410;2023-06-22T07:07:35;9.32;;;6.07;;
71572;SDS011;59408;51.032;9.410;2023-06-22T07:10:04;9.57;;;6.18;;
71572;SDS011;59408;51.032;9.410;2023-06-22T07:12:32;9.80;;;6.30;;
71572;SDS011;59408;51.032;9.410;2023-06-22T07:15:05;9.20;;;6.10;;
71572;SDS011;59408;51.032;9.410;2023-06-22T07:17:32;9.10;;;6.28;;
71572;SDS011;59408;51.032;9.410;2023-06-22T07:20:00;12.95;;;6.28;;
71572;SDS011;59408;51.032;9.410;2023-06-22T07:22:27;10.48;;;6.78;;
71572;SDS011;59408;51.032;9.410;2023-06-22T07:24:53;9.83;;;6.80;;
71572;SDS011;59408;51.032;9.410;2023-06-22T07:27:20;10.80;;;6.72;;
71572;SDS011;59408;51.032;9.410;2023-06-22T07:29:47;9.57;;;7.03;;
71572;SDS011;59408;51.032;9.410;2023-06-22T07:32:15;9.77;;;6.90;;
71572;SDS011;59408;51.032;9.410;2023-06-22T07:34:42;10.65;;;7.05;;
71572;SDS011;59408;51.032;9.410;2023-06-22T07:37:09;10.47;;;6.93;;
71572;SDS011;59408;51.032;9.410;2023-06-22T07:39:35;12.48;;;7.53;;
71572;SDS011;59408;51.032;9.410;2023-06-22T07:42:05;9.57;;;7.03;;
71572;SDS011;59408;51.032;9.410;2023-06-22T07:44:31;12.07;;;7.30;;
71572;SDS011;59408;51.032;9.410;2023-06-22T07:46:58;10.80;;;7.70;;
71572;SDS011;59408;51.032;9.410;2023-06-22T07:49:27;10.40;;;7.27;;
71572;SDS011;59408;51.032;9.410;2023-06-22T07:51:54;11.35;;;6.75;;
71572;SDS011;59408;51.032;9.410;2023-06-22T07:54:20;11.63;;;7.65;;
71572;SDS011;59408;51.032;9.410;2023-06-22T07:56:47;11.02;;;7.53;;
71572;SDS011;59408;51.032;9.410;2023-06-22T07:59:14;10.63;;;7.45;;
71572;SDS011;59408;51.032;9.410;2023-06-22T08:01:40;11.07;;;7.67;;
71572;SDS011;59408;51.032;9.410;2023-06-22T08:04:07;9.90;;;7.13;;
71572;SDS011;59408;51.032;9.410;2023-06-22T08:06:35;10.57;;;7.72;;
71572;SDS011;59408;51.032;9.410;2023-06-22T08:09:02;10.60;;;7.15;;
71572;SDS011;59408;51.032;9.410;2023-06-22T08:11:28;10.65;;;7.63;;
71572;SDS011;59408;51.032;9.410;2023-06-22T08:13:55;11.00;;;7.73;;
71572;SDS011;59408;51.032;9.410;2023-06-22T08:16:22;11.73;;;7.78;;
71572;SDS011;59408;51.032;9.410;2023-06-22T08:18:48;10.98;;;8.05;;
71572;SDS011;59408;51.032;9.410;2023-06-22T08:21:15;11.27;;;7.65;;
71572;SDS011;59408;51.032;9.410;2023-06-22T08:23:43;11.07;;;8.00;;
71572;SDS011;59408;51.032;9.410;2023-06-22T08:26:09;10.53;;;8.00;;
71572;SDS011;59408;51.032;9.410;2023-06-22T08:28:36;10.77;;;7.68;;
71572;SDS011;59408;51.032;9.410;2023-06-22T08:31:03;11.73;;;8.43;;
71572;SDS011;59408;51.032;9.410;2023-06-22T08:33:29;12.05;;;8.45;;
71572;SDS011;59408;51.032;9.410;2023-06-22T08:35:57;10.13;;;8.07;;
71572;SDS011;59408;51.032;9.410;2023-06-22T08:38:24;9.53;;;7.40;;
71572;SDS011;59408;51.032;9.410;2023-06-22T08:40:53;10.45;;;7.80;;
71572;SDS011;59408;51.032;9.410;2023-06-22T08:43:20;11.73;;;8.88;;
71572;SDS011;59408;51.032;9.410;2023-06-22T08:45:47;11.40;;;7.60;;
71572;SDS011;59408;51.032;9.410;2023-06-22T08:48:14;10.82;;;7.97;;
71572;SDS011;59408;51.032;9.410;2023-06-22T08:50:41;11.27;;;8.93;;
71572;SDS011;59408;51.032;9.410;2023-06-22T08:53:07;11.60;;;8.63;;
71572;SDS011;59408;51.032;9.410;2023-06-22T08:55:34;10.63;;;8.55;;
71572;SDS011;59408;51.032;9.410;2023-06-22T08:58:02;11.05;;;8.05;;
71572;SDS011;59408;51.032;9.410;2023-06-22T09:00:29;10.55;;;8.07;;
71572;SDS011;59408;51.032;9.410;2023-06-22T09:02:55;11.60;;;8.10;;
71572;SDS011;59408;51.032;9.410;2023-06-22T09:05:22;13.63;;;8.23;;
71572;SDS011;59408;51.032;9.410;2023-06-22T09:07:49;11.23;;;8.27;;
71572;SDS011;59408;51.032;9.410;2023-06-22T09:10:17;11.30;;;8.13;;
71572;SDS011;59408;51.032;9.410;2023-06-22T09:12:44;11.80;;;8.40;;
71572;SDS011;59408;51.032;9.410;2023-06-22T09:15:12;10.73;;;8.27;;
71572;SDS011;59408;51.032;9.410;2023-06-22T09:17:54;10.98;;;8.10;;
71572;SDS011;59408;51.032;9.410;2023-06-22T09:20:21;11.05;;;8.00;;
71572;SDS011;59408;51.032;9.410;2023-06-22T09:22:48;11.77;;;8.48;;
71572;SDS011;59408;51.032;9.410;2023-06-22T09:25:14;10.43;;;8.65;;
71572;SDS011;59408;51.032;9.410;2023-06-22T09:27:41;11.50;;;8.60;;
71572;SDS011;59408;51.032;9.410;2023-06-22T09:30:08;10.60;;;8.45;;
71572;SDS011;59408;51.032;9.410;2023-06-22T09:32:36;10.63;;;8.15;;
71572;SDS011;59408;51.032;9.410;2023-06-22T09:35:04;9.88;;;7.75;;
71572;SDS011;59408;51.032;9.410;2023-06-22T09:37:31;9.82;;;7.97;;
71572;SDS011;59408;51.032;9.410;2023-06-22T09:39:58;12.53;;;8.17;;
71572;SDS011;59408;51.032;9.410;2023-06-22T09:42:24;10.23;;;7.75;;
71572;SDS011;59408;51.032;9.410;2023-06-22T09:44:51;11.10;;;8.50;;
71572;SDS011;59408;51.032;9.410;2023-06-22T09:47:18;12.10;;;8.27;;
71572;SDS011;59408;51.032;9.410;2023-06-22T09:49:46;11.57;;;8.52;;
71572;SDS011;59408;51.032;9.410;2023-06-22T09:52:14;11.57;;;8.00;;
71572;SDS011;59408;51.032;9.410;2023-06-22T09:54:40;9.95;;;7.82;;
71572;SDS011;59408;51.032;9.410;2023-06-22T09:57:07;9.75;;;8.32;;
71572;SDS011;59408;51.032;9.410;2023-06-22T09:59:34;10.07;;;7.90;;
71572;SDS011;59408;51.032;9.410;2023-06-22T10:02:00;11.60;;;8.27;;
71572;SDS011;59408;51.032;9.410;2023-06-22T10:04:29;9.80;;;7.60;;
71572;SDS011;59408;51.032;9.410;2023-06-22T10:06:58;10.18;;;8.02;;
71572;SDS011;59408;51.032;9.410;2023-06-22T10:09:24;10.45;;;8.48;;
71572;SDS011;59408;51.032;9.410;2023-06-22T10:11:51;9.52;;;7.38;;
71572;SDS011;59408;51.032;9.410;2023-06-22T10:14:18;10.02;;;7.97;;
71572;SDS011;59408;51.032;9.410;2023-06-22T10:16:45;10.40;;;7.30;;
71572;SDS011;59408;51.032;9.410;2023-06-22T10:19:11;9.88;;;7.85;;
71572;SDS011;59408;51.032;9.410;2023-06-22T10:21:38;10.57;;;8.48;;
71572;SDS011;59408;51.032;9.410;2023-06-22T10:24:06;9.32;;;7.53;;
71572;SDS011;59408;51.032;9.410;2023-06-22T10:26:33;9.60;;;7.38;;
71572;SDS011;59408;51.032;9.410;2023-06-22T10:29:00;9.60;;;7.67;;
71572;SDS011;59408;51.032;9.410;2023-06-22T10:31:42;9.52;;;7.53;;
71572;SDS011;59408;51.032;9.410;2023-06-22T10:34:08;9.20;;;7.80;;
71572;SDS011;59408;51.032;9.410;2023-06-22T10:36:35;11.80;;;7.47;;
71572;SDS011;59408;51.032;9.410;2023-06-22T10:39:01;9.98;;;8.02;;
71572;SDS011;59408;51.032;9.410;2023-06-22T10:41:30;8.80;;;7.50;;
71572;SDS011;59408;51.032;9.410;2023-06-22T10:43:56;10.35;;;7.75;;
71572;SDS011;59408;51.032;9.410;2023-06-22T10:46:23;11.88;;;8.63;;
71572;SDS011;59408;51.032;9.410;2023-06-22T10:48:50;12.40;;;7.97;;
71572;SDS011;59408;51.032;9.410;2023-06-22T10:51:17;10.15;;;8.13;;
71572;SDS011;59408;51.032;9.410;2023-06-22T10:53:44;10.97;;;7.70;;
71572;SDS011;59408;51.032;9.410;2023-06-22T10:56:10;10.07;;;7.85;;
71572;SDS011;59408;51.032;9.410;2023-06-22T10:58:38;9.90;;;8.30;;
71572;SDS011;59408;51.032;9.410;2023-06-22T11:01:05;9.75;;;7.78;;
71572;SDS011;59408;51.032;9.410;2023-06-22T11:03:31;9.75;;;7.50;;
71572;SDS011;59408;51.032;9.410;2023-06-22T11:05:58;10.80;;;7.97;;
71572;SDS011;59408;51.032;9.410;2023-06-22T11:08:25;10.50;;;7.75;;
71572;SDS011;59408;51.032;9.410;2023-06-22T11:10:51;9.50;;;8.18;;
71572;SDS011;59408;51.032;9.410;2023-06-22T11:13:18;9.70;;;7.60;;
71572;SDS011;59408;51.032;9.410;2023-06-22T11:15:46;11.32;;;8.05;;
71572;SDS011;59408;51.032;9.410;2023-06-22T11:18:13;9.70;;;7.77;;
71572;SDS011;59408;51.032;9.410;2023-06-22T11:20:39;10.48;;;7.97;;
71572;SDS011;59408;51.032;9.410;2023-06-22T11:23:06;9.07;;;8.15;;
71572;SDS011;59408;51.032;9.410;2023-06-22T11:25:33;11.43;;;8.20;;
71572;SDS011;59408;51.032;9.410;2023-06-22T11:28:00;10.23;;;8.65;;
71572;SDS011;59408;51.032;9.410;2023-06-22T11:30:28;9.90;;;7.73;;
71572;SDS011;59408;51.032;9.410;2023-06-22T11:32:58;10.77;;;8.45;;
71572;SDS011;59408;51.032;9.410;2023-06-22T11:35:25;10.88;;;7.90;;
71572;SDS011;59408;51.032;9.410;2023-06-22T11:37:52;10.23;;;7.97;;
71572;SDS011;59408;51.032;9.410;2023-06-22T11:40:19;9.52;;;7.65;;
71572;SDS011;59408;51.032;9.410;2023-06-22T11:42:45;9.60;;;7.70;;
71572;SDS011;59408;51.032;9.410;2023-06-22T11:45:12;9.60;;;8.30;;
71572;SDS011;59408;51.032;9.410;2023-06-22T11:47:39;11.52;;;8.20;;
71572;SDS011;59408;51.032;9.410;2023-06-22T11:50:07;10.82;;;8.07;;
71572;SDS011;59408;51.032;9.410;2023-06-22T11:52:34;10.30;;;8.27;;
71572;SDS011;59408;51.032;9.410;2023-06-22T11:55:01;9.40;;;7.67;;
71572;SDS011;59408;51.032;9.410;2023-06-22T11:57:28;10.18;;;7.93;;
71572;SDS011;59408;51.032;9.410;2023-06-22T11:59:54;9.50;;;8.27;;
71572;SDS011;59408;51.032;9.410;2023-06-22T12:02:21;13.82;;;8.25;;
71572;SDS011;59408;51.032;9.410;2023-06-22T12:04:48;10.25;;;8.40;;
71572;SDS011;59408;51.032;9.410;2023-06-22T12:07:16;10.13;;;8.30;;
71572;SDS011;59408;51.032;9.410;2023-06-22T12:09:43;10.20;;;8.50;;
71572;SDS011;59408;51.032;9.410;2023-06-22T12:12:10;10.88;;;9.15;;
71572;SDS011;59408;51.032;9.410;2023-06-22T12:14:36;12.13;;;8.75;;
71572;SDS011;59408;51.032;9.410;2023-06-22T12:17:03;11.35;;;8.82;;
71572;SDS011;59408;51.032;9.410;2023-06-22T12:19:30;12.27;;;8.50;;
71572;SDS011;59408;51.032;9.410;2023-06-22T12:21:56;11.32;;;8.60;;
71572;SDS011;59408;51.032;9.410;2023-06-22T12:24:24;14.40;;;8.27;;
71572;SDS011;59408;51.032;9.410;2023-06-22T12:26:51;10.85;;;7.50;;
71572;SDS011;59408;51.032;9.410;2023-06-22T12:29:21;12.27;;;8.68;;
71572;SDS011;59408;51.032;9.410;2023-06-22T12:31:50;10.43;;;8.30;;
71572;SDS011;59408;51.032;9.410;2023-06-22T12:34:20;11.63;;;8.50;;
71572;SDS011;59408;51.032;9.410;2023-06-22T12:36:47;11.82;;;8.85;;
71572;SDS011;59408;51.032;9.410;2023-06-22T12:39:13;10.13;;;8.20;;
71572;SDS011;59408;51.032;9.410;2023-06-22T12:41:41;13.00;;;8.05;;
71572;SDS011;59408;51.032;9.410;2023-06-22T12:44:08;12.00;;;8.53;;
71572;SDS011;59408;51.032;9.410;2023-06-22T12:46:35;11.68;;;8.70;;
71572;SDS011;59408;51.032;9.410;2023-06-22T12:49:01;11.27;;;9.10;;
71572;SDS011;59408;51.032;9.410;2023-06-22T12:51:28;11.20;;;8.50;;
71572;SDS011;59408;51.032;9.410;2023-06-22T12:53:55;12.70;;;8.65;;
71572;SDS011;59408;51.032;9.410;2023-06-22T12:56:24;10.73;;;8.50;;
71572;SDS011;59408;51.032;9.410;2023-06-22T12:58:52;11.35;;;9.25;;
71572;SDS011;59408;51.032;9.410;2023-06-22T13:01:19;12.68;;;9.13;;
71572;SDS011;59408;51.032;9.410;2023-06-22T13:03:46;15.18;;;9.10;;
71572;SDS011;59408;51.032;9.410;2023-06-22T13:06:12;10.82;;;9.15;;
71572;SDS011;59408;51.032;9.410;2023-06-22T13:08:39;10.70;;;9.27;;
71572;SDS011;59408;51.032;9.410;2023-06-22T13:11:08;11.82;;;9.57;;
71572;SDS011;59408;51.032;9.410;2023-06-22T13:13:35;14.02;;;9.40;;
71572;SDS011;59408;51.032;9.410;2023-06-22T13:16:03;12.23;;;9.10;;
71572;SDS011;59408;51.032;9.410;2023-06-22T13:18:30;11.68;;;9.35;;
71572;SDS011;59408;51.032;9.410;2023-06-22T13:20:56;13.03;;;9.20;;
71572;SDS011;59408;51.032;9.410;2023-06-22T13:23:23;11.70;;;9.20;;
71572;SDS011;59408;51.032;9.410;2023-06-22T13:25:50;12.50;;;9.93;;
71572;SDS011;59408;51.032;9.410;2023-06-22T13:28:16;12.13;;;9.10;;
71572;SDS011;59408;51.032;9.410;2023-06-22T13:30:53;14.32;;;9.98;;
71572;SDS011;59408;51.032;9.410;2023-06-22T13:33:22;10.97;;;9.13;;
71572;SDS011;59408;51.032;9.410;2023-06-22T13:35:48;11.07;;;9.27;;
71572;SDS011;59408;51.032;9.410;2023-06-22T13:38:15;12.02;;;9.90;;
71572;SDS011;59408;51.032;9.410;2023-06-22T13:40:42;12.32;;;9.57;;
71572;SDS011;59408;51.032;9.410;2023-06-22T13:43:08;14.50;;;10.02;;
71572;SDS011;59408;51.032;9.410;2023-06-22T13:45:35;10.90;;;9.80;;
71572;SDS011;59408;51.032;9.410;2023-06-22T13:48:02;13.05;;;9.27;;
71572;SDS011;59408;51.032;9.410;2023-06-22T13:50:30;13.90;;;10.07;;
71572;SDS011;59408;51.032;9.410;2023-06-22T13:52:57;12.18;;;10.20;;
71572;SDS011;59408;51.032;9.410;2023-06-22T13:55:24;12.18;;;9.90;;
71572;SDS011;59408;51.032;9.410;2023-06-22T13:57:51;11.87;;;9.30;;
71572;SDS011;59408;51.032;9.410;2023-06-22T14:00:17;11.68;;;9.70;;
71572;SDS011;59408;51.032;9.410;2023-06-22T14:02:44;12.57;;;9.90;;
71572;SDS011;59408;51.032;9.410;2023-06-22T14:05:11;12.57;;;10.32;;
71572;SDS011;59408;51.032;9.410;2023-06-22T14:07:40;13.52;;;9.95;;
71572;SDS011;59408;51.032;9.410;2023-06-22T14:10:06;11.97;;;9.47;;
71572;SDS011;59408;51.032;9.410;2023-06-22T14:12:34;15.98;;;9.43;;
71572;SDS011;59408;51.032;9.410;2023-06-22T14:15:00;14.73;;;9.93;;
71572;SDS011;59408;51.032;9.410;2023-06-22T14:17:27;13.60;;;9.95;;
71572;SDS011;59408;51.032;9.410;2023-06-22T14:19:53;12.32;;;9.35;;
71572;SDS011;59408;51.032;9.410;2023-06-22T14:22:20;12.73;;;9.17;;
71572;SDS011;59408;51.032;9.410;2023-06-22T14:24:49;11.98;;;9.40;;
71572;SDS011;59408;51.032;9.410;2023-06-22T14:27:16;14.57;;;10.02;;
71572;SDS011;59408;51.032;9.410;2023-06-22T14:29:42;14.02;;;9.52;;
71572;SDS011;59408;51.032;9.410;2023-06-22T14:32:09;13.73;;;9.88;;
71572;SDS011;59408;51.032;9.410;2023-06-22T14:34:36;12.57;;;9.63;;